sensor_id;sensor_type;location;lat;lon;timestamp;P1;durP1;ratioP1;P2;durP2;ratioP2
54384;SDS011;40284;52.878;5.998;2023-01-10T00:00:46;21.95;;;4.35;;
54384;SDS011;40284;52.878;5.998;2023-01-10T00:03:12;21.83;;;5.10;;
54384;SDS011;40284;52.878;5.998;2023-01-10T00:05:39;20.30;;;4.38;;
54384;SDS011;40284;52.878;5.998;2023-01-10T00:08:06;21.55;;;4.05;;
54384;SDS011;40284;52.878;5.998;2023-01-10T00:10:32;22.92;;;4.75;;
54384;SDS011;40284;52.878;5.998;2023-01-10T00:12:59;20.92;;;4.07;;
54384;SDS011;40284;52.878;5.998;2023-01-10T00:15:44;19.70;;;3.78;;
54384;SDS011;40284;52.878;5.998;2023-01-10T00:18:10;19.95;;;4.70;;
54384;SDS011;40284;52.878;5.998;2023-01-10T00:20:36;22.02;;;3.65;;
54384;SDS011;40284;52.878;5.998;2023-01-10T00:23:02;20.33;;;4.07;;
54384;SDS011;40284;52.878;5.998;2023-01-10T00:25:29;15.95;;;4.13;;
54384;SDS011;40284;52.878;5.998;2023-01-10T00:27:57;17.70;;;4.57;;
54384;SDS011;40284;52.878;5.998;2023-01-10T00:30:42;19.00;;;4.03;;
54384;SDS011;40284;52.878;5.998;2023-01-10T00:33:08;22.48;;;3.55;;
54384;SDS011;40284;52.878;5.998;2023-01-10T00:35:41;22.88;;;3.38;;
54384;SDS011;40284;52.878;5.998;2023-01-10T00:38:07;21.60;;;3.53;;
54384;SDS011;40284;52.878;5.998;2023-01-10T00:40:33;19.67;;;3.80;;
54384;SDS011;40284;52.878;5.998;2023-01-10T00:42:59;23.63;;;4.03;;
54384;SDS011;40284;52.878;5.998;2023-01-10T00:45:45;17.80;;;4.57;;
54384;SDS011;40284;52.878;5.998;2023-01-10T00:48:11;24.20;;;3.72;;
54384;SDS011;40284;52.878;5.998;2023-01-10T00:50:37;20.13;;;3.63;;
54384;SDS011;40284;52.878;5.998;2023-01-10T00:53:04;13.57;;;3.35;;
54384;SDS011;40284;52.878;5.998;2023-01-10T00:55:30;19.25;;;4.47;;
54384;SDS011;40284;52.878;5.998;2023-01-10T00:57:56;17.42;;;3.30;;
54384;SDS011;40284;52.878;5.998;2023-01-10T01:00:22;21.77;;;4.57;;
54384;SDS011;40284;52.878;5.998;2023-01-10T01:02:48;17.65;;;3.65;;
54384;SDS011;40284;52.878;5.998;2023-01-10T01:05:15;30.95;;;3.92;;
54384;SDS011;40284;52.878;5.998;2023-01-10T01:07:41;18.35;;;3.58;;
54384;SDS011;40284;52.878;5.998;2023-01-10T01:10:08;16.77;;;3.25;;
54384;SDS011;40284;52.878;5.998;2023-01-10T01:12:53;17.10;;;3.75;;
54384;SDS011;40284;52.878;5.998;2023-01-10T01:15:19;26.65;;;4.70;;
54384;SDS011;40284;52.878;5.998;2023-01-10T01:17:46;17.63;;;3.63;;
54384;SDS011;40284;52.878;5.998;2023-01-10T01:20:12;19.85;;;4.18;;
54384;SDS011;40284;52.878;5.998;2023-01-10T01:22:39;22.83;;;3.70;;
54384;SDS011;40284;52.878;5.998;2023-01-10T01:25:06;16.63;;;3.80;;
54384;SDS011;40284;52.878;5.998;2023-01-10T01:27:32;25.27;;;4.03;;
54384;SDS011;40284;52.878;5.998;2023-01-10T01:29:59;14.30;;;3.13;;
54384;SDS011;40284;52.878;5.998;2023-01-10T01:32:25;18.15;;;3.70;;
54384;SDS011;40284;52.878;5.998;2023-01-10T01:34:51;23.10;;;3.88;;
54384;SDS011;40284;52.878;5.998;2023-01-10T01:37:17;26.23;;;4.35;;
54384;SDS011;40284;52.878;5.998;2023-01-10T01:39:44;22.85;;;3.95;;
54384;SDS011;40284;52.878;5.998;2023-01-10T01:42:19;23.70;;;4.20;;
54384;SDS011;40284;52.878;5.998;2023-01-10T01:45:02;16.10;;;3.28;;
54384;SDS011;40284;52.878;5.998;2023-01-10T01:47:32;16.98;;;4.22;;
54384;SDS011;40284;52.878;5.998;2023-01-10T01:49:59;18.48;;;3.42;;
54384;SDS011;40284;52.878;5.998;2023-01-10T01:52:27;22.90;;;3.75;;
54384;SDS011;40284;52.878;5.998;2023-01-10T01:54:55;16.33;;;3.30;;
54384;SDS011;40284;52.878;5.998;2023-01-10T01:57:23;23.10;;;5.43;;
54384;SDS011;40284;52.878;5.998;2023-01-10T01:59:50;22.98;;;4.53;;
54384;SDS011;40284;52.878;5.998;2023-01-10T02:02:18;26.25;;;4.25;;
54384;SDS011;40284;52.878;5.998;2023-01-10T02:04:48;25.08;;;3.33;;
54384;SDS011;40284;52.878;5.998;2023-01-10T02:07:16;19.77;;;3.15;;
54384;SDS011;40284;52.878;5.998;2023-01-10T02:09:58;14.43;;;3.83;;
54384;SDS011;40284;52.878;5.998;2023-01-10T02:12:26;17.63;;;3.35;;
54384;SDS011;40284;52.878;5.998;2023-01-10T02:14:53;20.52;;;4.35;;
54384;SDS011;40284;52.878;5.998;2023-01-10T02:17:20;15.77;;;3.30;;
54384;SDS011;40284;52.878;5.998;2023-01-10T02:19:50;20.05;;;3.35;;
54384;SDS011;40284;52.878;5.998;2023-01-10T02:43:10;19.23;;;4.85;;
54384;SDS011;40284;52.878;5.998;2023-01-10T02:45:45;15.63;;;2.90;;
54384;SDS011;40284;52.878;5.998;2023-01-10T02:48:12;18.02;;;4.07;;
54384;SDS011;40284;52.878;5.998;2023-01-10T02:53:13;16.70;;;3.47;;
54384;SDS011;40284;52.878;5.998;2023-01-10T02:58:50;13.00;;;3.75;;
54384;SDS011;40284;52.878;5.998;2023-01-10T03:00:56;17.98;;;5.35;;
54384;SDS011;40284;52.878;5.998;2023-01-10T03:11:35;14.40;;;2.85;;
54384;SDS011;40284;52.878;5.998;2023-01-10T03:14:12;25.13;;;3.42;;
54384;SDS011;40284;52.878;5.998;2023-01-10T03:16:39;21.48;;;3.85;;
54384;SDS011;40284;52.878;5.998;2023-01-10T03:19:08;21.67;;;3.63;;
54384;SDS011;40284;52.878;5.998;2023-01-10T03:21:35;25.98;;;4.15;;
54384;SDS011;40284;52.878;5.998;2023-01-10T03:24:07;22.27;;;4.05;;
54384;SDS011;40284;52.878;5.998;2023-01-10T03:26:54;18.13;;;3.72;;
54384;SDS011;40284;52.878;5.998;2023-01-10T03:29:31;15.68;;;3.42;;
54384;SDS011;40284;52.878;5.998;2023-01-10T03:32:00;22.77;;;4.38;;
54384;SDS011;40284;52.878;5.998;2023-01-10T03:34:28;20.33;;;3.60;;
54384;SDS011;40284;52.878;5.998;2023-01-10T03:37:08;19.98;;;3.50;;
54384;SDS011;40284;52.878;5.998;2023-01-10T03:39:50;15.95;;;3.50;;
54384;SDS011;40284;52.878;5.998;2023-01-10T03:42:20;19.70;;;3.10;;
54384;SDS011;40284;52.878;5.998;2023-01-10T03:50:09;20.75;;;5.13;;
54384;SDS011;40284;52.878;5.998;2023-01-10T03:52:36;19.65;;;3.95;;
54384;SDS011;40284;52.878;5.998;2023-01-10T03:55:05;22.50;;;4.05;;
54384;SDS011;40284;52.878;5.998;2023-01-10T03:57:32;23.45;;;5.07;;
54384;SDS011;40284;52.878;5.998;2023-01-10T03:59:58;20.98;;;3.70;;
54384;SDS011;40284;52.878;5.998;2023-01-10T04:02:28;22.60;;;4.72;;
54384;SDS011;40284;52.878;5.998;2023-01-10T04:04:55;24.05;;;3.90;;
54384;SDS011;40284;52.878;5.998;2023-01-10T04:07:21;25.40;;;4.47;;
54384;SDS011;40284;52.878;5.998;2023-01-10T04:09:47;22.13;;;3.97;;
54384;SDS011;40284;52.878;5.998;2023-01-10T04:12:13;27.73;;;4.82;;
54384;SDS011;40284;52.878;5.998;2023-01-10T04:14:39;27.98;;;4.80;;
54384;SDS011;40284;52.878;5.998;2023-01-10T04:17:06;36.10;;;6.95;;
54384;SDS011;40284;52.878;5.998;2023-01-10T04:19:32;21.13;;;4.82;;
54384;SDS011;40284;52.878;5.998;2023-01-10T04:21:58;21.65;;;4.60;;
54384;SDS011;40284;52.878;5.998;2023-01-10T04:24:24;28.30;;;5.43;;
54384;SDS011;40284;52.878;5.998;2023-01-10T04:26:50;31.33;;;5.28;;
54384;SDS011;40284;52.878;5.998;2023-01-10T04:29:16;21.80;;;4.35;;
54384;SDS011;40284;52.878;5.998;2023-01-10T04:31:42;21.20;;;4.00;;
54384;SDS011;40284;52.878;5.998;2023-01-10T04:34:08;31.83;;;4.85;;
54384;SDS011;40284;52.878;5.998;2023-01-10T04:36:34;31.13;;;3.85;;
54384;SDS011;40284;52.878;5.998;2023-01-10T04:39:01;25.88;;;5.78;;
54384;SDS011;40284;52.878;5.998;2023-01-10T04:41:27;26.35;;;3.90;;
54384;SDS011;40284;52.878;5.998;2023-01-10T04:43:53;23.33;;;3.83;;
54384;SDS011;40284;52.878;5.998;2023-01-10T04:46:20;24.48;;;4.50;;
54384;SDS011;40284;52.878;5.998;2023-01-10T04:48:46;20.65;;;5.03;;
54384;SDS011;40284;52.878;5.998;2023-01-10T04:51:12;25.35;;;4.93;;
54384;SDS011;40284;52.878;5.998;2023-01-10T04:53:38;23.58;;;4.22;;
54384;SDS011;40284;52.878;5.998;2023-01-10T04:56:05;19.05;;;3.53;;
54384;SDS011;40284;52.878;5.998;2023-01-10T04:58:32;16.17;;;3.80;;
54384;SDS011;40284;52.878;5.998;2023-01-10T05:00:58;19.65;;;3.45;;
54384;SDS011;40284;52.878;5.998;2023-01-10T05:03:25;19.15;;;3.88;;
54384;SDS011;40284;52.878;5.998;2023-01-10T05:05:51;19.38;;;3.78;;
54384;SDS011;40284;52.878;5.998;2023-01-10T05:08:17;24.63;;;4.00;;
54384;SDS011;40284;52.878;5.998;2023-01-10T05:10:43;19.15;;;3.65;;
54384;SDS011;40284;52.878;5.998;2023-01-10T05:13:09;17.00;;;4.20;;
54384;SDS011;40284;52.878;5.998;2023-01-10T05:15:35;24.52;;;4.85;;
54384;SDS011;40284;52.878;5.998;2023-01-10T05:18:01;25.55;;;4.13;;
54384;SDS011;40284;52.878;5.998;2023-01-10T05:20:27;24.40;;;5.40;;
54384;SDS011;40284;52.878;5.998;2023-01-10T05:22:53;23.50;;;4.18;;
54384;SDS011;40284;52.878;5.998;2023-01-10T05:25:19;18.50;;;4.38;;
54384;SDS011;40284;52.878;5.998;2023-01-10T05:27:46;30.70;;;4.88;;
54384;SDS011;40284;52.878;5.998;2023-01-10T05:30:12;25.70;;;4.47;;
54384;SDS011;40284;52.878;5.998;2023-01-10T05:32:38;30.98;;;5.90;;
54384;SDS011;40284;52.878;5.998;2023-01-10T05:35:05;26.95;;;5.95;;
54384;SDS011;40284;52.878;5.998;2023-01-10T05:37:31;33.25;;;5.13;;
54384;SDS011;40284;52.878;5.998;2023-01-10T05:39:57;35.65;;;5.00;;
54384;SDS011;40284;52.878;5.998;2023-01-10T05:42:23;27.60;;;6.43;;
54384;SDS011;40284;52.878;5.998;2023-01-10T05:44:49;23.33;;;4.47;;
54384;SDS011;40284;52.878;5.998;2023-01-10T05:47:15;30.27;;;4.88;;
54384;SDS011;40284;52.878;5.998;2023-01-10T05:49:41;27.23;;;4.63;;
54384;SDS011;40284;52.878;5.998;2023-01-10T05:52:07;31.27;;;6.07;;
54384;SDS011;40284;52.878;5.998;2023-01-10T05:54:33;28.75;;;5.20;;
54384;SDS011;40284;52.878;5.998;2023-01-10T05:56:59;27.60;;;4.70;;
54384;SDS011;40284;52.878;5.998;2023-01-10T05:59:25;22.25;;;4.45;;
54384;SDS011;40284;52.878;5.998;2023-01-10T06:01:51;26.67;;;4.90;;
54384;SDS011;40284;52.878;5.998;2023-01-10T06:04:17;22.13;;;4.30;;
54384;SDS011;40284;52.878;5.998;2023-01-10T06:06:43;26.40;;;4.30;;
54384;SDS011;40284;52.878;5.998;2023-01-10T06:09:09;24.73;;;4.82;;
54384;SDS011;40284;52.878;5.998;2023-01-10T06:11:35;18.65;;;4.90;;
54384;SDS011;40284;52.878;5.998;2023-01-10T06:14:03;24.75;;;5.00;;
54384;SDS011;40284;52.878;5.998;2023-01-10T06:16:31;21.35;;;4.65;;
54384;SDS011;40284;52.878;5.998;2023-01-10T06:18:57;27.45;;;4.45;;
54384;SDS011;40284;52.878;5.998;2023-01-10T06:21:23;37.00;;;6.80;;
54384;SDS011;40284;52.878;5.998;2023-01-10T06:23:49;27.38;;;4.80;;
54384;SDS011;40284;52.878;5.998;2023-01-10T06:26:15;30.40;;;5.25;;
54384;SDS011;40284;52.878;5.998;2023-01-10T06:28:42;25.15;;;5.28;;
54384;SDS011;40284;52.878;5.998;2023-01-10T06:31:08;21.10;;;5.07;;
54384;SDS011;40284;52.878;5.998;2023-01-10T06:33:34;24.55;;;4.68;;
54384;SDS011;40284;52.878;5.998;2023-01-10T06:36:03;26.20;;;5.45;;
54384;SDS011;40284;52.878;5.998;2023-01-10T06:38:29;23.67;;;4.85;;
54384;SDS011;40284;52.878;5.998;2023-01-10T06:40:55;27.50;;;5.55;;
54384;SDS011;40284;52.878;5.998;2023-01-10T06:43:21;34.13;;;5.88;;
54384;SDS011;40284;52.878;5.998;2023-01-10T06:45:47;19.17;;;4.75;;
54384;SDS011;40284;52.878;5.998;2023-01-10T06:48:13;29.23;;;5.13;;
54384;SDS011;40284;52.878;5.998;2023-01-10T06:50:39;34.88;;;6.85;;
54384;SDS011;40284;52.878;5.998;2023-01-10T06:53:05;28.20;;;5.93;;
54384;SDS011;40284;52.878;5.998;2023-01-10T06:55:32;25.65;;;4.65;;
54384;SDS011;40284;52.878;5.998;2023-01-10T06:57:59;34.70;;;6.85;;
54384;SDS011;40284;52.878;5.998;2023-01-10T07:00:25;23.80;;;6.03;;
54384;SDS011;40284;52.878;5.998;2023-01-10T07:02:52;29.42;;;6.15;;
54384;SDS011;40284;52.878;5.998;2023-01-10T07:05:20;24.73;;;5.38;;
54384;SDS011;40284;52.878;5.998;2023-01-10T07:07:46;30.85;;;5.15;;
54384;SDS011;40284;52.878;5.998;2023-01-10T07:10:12;25.85;;;4.68;;
54384;SDS011;40284;52.878;5.998;2023-01-10T07:12:38;22.90;;;4.80;;
54384;SDS011;40284;52.878;5.998;2023-01-10T07:15:04;25.15;;;5.35;;
54384;SDS011;40284;52.878;5.998;2023-01-10T07:17:30;24.05;;;4.60;;
54384;SDS011;40284;52.878;5.998;2023-01-10T07:19:56;26.17;;;5.47;;
54384;SDS011;40284;52.878;5.998;2023-01-10T07:22:23;25.08;;;5.03;;
54384;SDS011;40284;52.878;5.998;2023-01-10T07:24:49;28.83;;;5.55;;
54384;SDS011;40284;52.878;5.998;2023-01-10T07:27:15;28.75;;;4.38;;
54384;SDS011;40284;52.878;5.998;2023-01-10T07:29:41;31.25;;;6.03;;
54384;SDS011;40284;52.878;5.998;2023-01-10T07:32:07;34.08;;;6.65;;
54384;SDS011;40284;52.878;5.998;2023-01-10T07:34:33;26.48;;;5.45;;
54384;SDS011;40284;52.878;5.998;2023-01-10T07:37:00;32.22;;;6.25;;
54384;SDS011;40284;52.878;5.998;2023-01-10T07:39:26;31.23;;;5.85;;
54384;SDS011;40284;52.878;5.998;2023-01-10T07:41:52;25.63;;;4.40;;
54384;SDS011;40284;52.878;5.998;2023-01-10T07:44:19;23.55;;;6.28;;
54384;SDS011;40284;52.878;5.998;2023-01-10T07:46:45;37.25;;;6.85;;
54384;SDS011;40284;52.878;5.998;2023-01-10T07:49:11;28.00;;;5.88;;
54384;SDS011;40284;52.878;5.998;2023-01-10T07:51:38;36.60;;;5.68;;
54384;SDS011;40284;52.878;5.998;2023-01-10T07:54:04;21.02;;;4.45;;
54384;SDS011;40284;52.878;5.998;2023-01-10T07:56:30;23.35;;;5.00;;
54384;SDS011;40284;52.878;5.998;2023-01-10T07:58:56;30.98;;;5.50;;
54384;SDS011;40284;52.878;5.998;2023-01-10T08:01:22;22.38;;;5.32;;
54384;SDS011;40284;52.878;5.998;2023-01-10T08:03:50;25.48;;;4.93;;
54384;SDS011;40284;52.878;5.998;2023-01-10T08:06:16;31.75;;;5.93;;
54384;SDS011;40284;52.878;5.998;2023-01-10T08:08:42;28.83;;;5.45;;
54384;SDS011;40284;52.878;5.998;2023-01-10T08:11:08;26.42;;;5.65;;
54384;SDS011;40284;52.878;5.998;2023-01-10T08:13:34;26.10;;;5.90;;
54384;SDS011;40284;52.878;5.998;2023-01-10T08:16:03;20.02;;;4.78;;
54384;SDS011;40284;52.878;5.998;2023-01-10T08:18:30;24.95;;;4.93;;
54384;SDS011;40284;52.878;5.998;2023-01-10T08:20:56;28.77;;;5.15;;
54384;SDS011;40284;52.878;5.998;2023-01-10T08:23:23;25.65;;;4.63;;
54384;SDS011;40284;52.878;5.998;2023-01-10T08:25:49;27.25;;;7.68;;
54384;SDS011;40284;52.878;5.998;2023-01-10T08:28:16;21.83;;;5.03;;
54384;SDS011;40284;52.878;5.998;2023-01-10T08:30:42;27.38;;;4.97;;
54384;SDS011;40284;52.878;5.998;2023-01-10T08:33:08;27.02;;;5.22;;
54384;SDS011;40284;52.878;5.998;2023-01-10T08:35:38;32.47;;;5.80;;
54384;SDS011;40284;52.878;5.998;2023-01-10T08:38:05;26.50;;;4.20;;
54384;SDS011;40284;52.878;5.998;2023-01-10T08:40:31;14.15;;;4.50;;
54384;SDS011;40284;52.878;5.998;2023-01-10T08:42:57;22.65;;;4.68;;
54384;SDS011;40284;52.878;5.998;2023-01-10T08:45:24;26.23;;;5.25;;
54384;SDS011;40284;52.878;5.998;2023-01-10T08:47:50;28.65;;;4.60;;
54384;SDS011;40284;52.878;5.998;2023-01-10T08:50:16;26.27;;;5.47;;
54384;SDS011;40284;52.878;5.998;2023-01-10T08:52:42;23.77;;;5.28;;
54384;SDS011;40284;52.878;5.998;2023-01-10T08:55:08;31.42;;;6.45;;
54384;SDS011;40284;52.878;5.998;2023-01-10T08:57:34;23.63;;;5.03;;
54384;SDS011;40284;52.878;5.998;2023-01-10T09:00:00;31.02;;;6.25;;
54384;SDS011;40284;52.878;5.998;2023-01-10T09:02:26;30.48;;;6.13;;
54384;SDS011;40284;52.878;5.998;2023-01-10T09:04:53;25.17;;;5.32;;
54384;SDS011;40284;52.878;5.998;2023-01-10T09:07:19;29.05;;;6.45;;
54384;SDS011;40284;52.878;5.998;2023-01-10T09:09:45;29.52;;;5.25;;
54384;SDS011;40284;52.878;5.998;2023-01-10T09:12:11;28.83;;;5.20;;
54384;SDS011;40284;52.878;5.998;2023-01-10T09:14:56;27.75;;;5.07;;
54384;SDS011;40284;52.878;5.998;2023-01-10T09:17:22;24.83;;;4.93;;
54384;SDS011;40284;52.878;5.998;2023-01-10T09:19:48;29.48;;;5.10;;
54384;SDS011;40284;52.878;5.998;2023-01-10T09:22:14;23.02;;;4.75;;
54384;SDS011;40284;52.878;5.998;2023-01-10T09:24:40;26.10;;;5.88;;
54384;SDS011;40284;52.878;5.998;2023-01-10T09:27:08;28.20;;;6.10;;
54384;SDS011;40284;52.878;5.998;2023-01-10T09:29:34;28.65;;;5.28;;
54384;SDS011;40284;52.878;5.998;2023-01-10T09:32:01;27.63;;;5.30;;
54384;SDS011;40284;52.878;5.998;2023-01-10T09:34:27;24.88;;;5.50;;
54384;SDS011;40284;52.878;5.998;2023-01-10T09:36:53;33.42;;;6.55;;
54384;SDS011;40284;52.878;5.998;2023-01-10T09:39:19;26.38;;;4.80;;
54384;SDS011;40284;52.878;5.998;2023-01-10T09:41:50;24.83;;;4.63;;
54384;SDS011;40284;52.878;5.998;2023-01-10T09:46:59;24.88;;;5.28;;
54384;SDS011;40284;52.878;5.998;2023-01-10T09:51:55;27.23;;;5.32;;
54384;SDS011;40284;52.878;5.998;2023-01-10T09:54:28;31.67;;;5.70;;
54384;SDS011;40284;52.878;5.998;2023-01-10T09:56:54;22.77;;;5.43;;
54384;SDS011;40284;52.878;5.998;2023-01-10T09:59:25;27.80;;;5.15;;
54384;SDS011;40284;52.878;5.998;2023-01-10T10:01:52;27.42;;;6.07;;
54384;SDS011;40284;52.878;5.998;2023-01-10T10:04:35;24.08;;;5.47;;
54384;SDS011;40284;52.878;5.998;2023-01-10T10:07:01;32.53;;;5.90;;
54384;SDS011;40284;52.878;5.998;2023-01-10T10:09:32;34.17;;;6.90;;
54384;SDS011;40284;52.878;5.998;2023-01-10T10:14:51;27.42;;;5.70;;
54384;SDS011;40284;52.878;5.998;2023-01-10T10:17:34;33.90;;;6.15;;
54384;SDS011;40284;52.878;5.998;2023-01-10T10:20:09;26.25;;;5.35;;
54384;SDS011;40284;52.878;5.998;2023-01-10T10:25:27;27.02;;;5.90;;
54384;SDS011;40284;52.878;5.998;2023-01-10T10:30:42;24.80;;;6.85;;
54384;SDS011;40284;52.878;5.998;2023-01-10T10:36:44;34.45;;;8.77;;
54384;SDS011;40284;52.878;5.998;2023-01-10T10:38:50;37.85;;;8.82;;
54384;SDS011;40284;52.878;5.998;2023-01-10T10:43:52;44.78;;;9.40;;
54384;SDS011;40284;52.878;5.998;2023-01-10T10:46:19;40.13;;;9.38;;
54384;SDS011;40284;52.878;5.998;2023-01-10T10:48:59;36.03;;;9.57;;
54384;SDS011;40284;52.878;5.998;2023-01-10T10:51:33;33.83;;;8.93;;
54384;SDS011;40284;52.878;5.998;2023-01-10T10:54:03;31.63;;;8.00;;
54384;SDS011;40284;52.878;5.998;2023-01-10T10:56:30;34.20;;;8.15;;
54384;SDS011;40284;52.878;5.998;2023-01-10T10:58:57;43.80;;;8.73;;
54384;SDS011;40284;52.878;5.998;2023-01-10T11:01:24;36.53;;;9.82;;
54384;SDS011;40284;52.878;5.998;2023-01-10T11:03:52;25.65;;;8.60;;
54384;SDS011;40284;52.878;5.998;2023-01-10T11:06:19;34.78;;;8.15;;
54384;SDS011;40284;52.878;5.998;2023-01-10T11:08:46;23.52;;;7.10;;
54384;SDS011;40284;52.878;5.998;2023-01-10T11:14:14;30.80;;;7.38;;
54384;SDS011;40284;52.878;5.998;2023-01-10T11:16:41;32.72;;;7.70;;
54384;SDS011;40284;52.878;5.998;2023-01-10T11:21:35;32.17;;;7.90;;
54384;SDS011;40284;52.878;5.998;2023-01-10T11:24:01;34.80;;;7.95;;
54384;SDS011;40284;52.878;5.998;2023-01-10T11:26:30;36.97;;;8.23;;
54384;SDS011;40284;52.878;5.998;2023-01-10T11:29:23;27.98;;;7.75;;
54384;SDS011;40284;52.878;5.998;2023-01-10T11:31:47;42.70;;;8.73;;
54384;SDS011;40284;52.878;5.998;2023-01-10T11:39:18;33.55;;;7.97;;
54384;SDS011;40284;52.878;5.998;2023-01-10T11:41:44;28.90;;;7.20;;
54384;SDS011;40284;52.878;5.998;2023-01-10T11:44:17;33.33;;;7.80;;
54384;SDS011;40284;52.878;5.998;2023-01-10T11:46:46;28.17;;;7.10;;
54384;SDS011;40284;52.878;5.998;2023-01-10T11:49:14;31.30;;;7.60;;
54384;SDS011;40284;52.878;5.998;2023-01-10T11:51:47;35.13;;;7.75;;
54384;SDS011;40284;52.878;5.998;2023-01-10T11:56:40;27.75;;;7.00;;
54384;SDS011;40284;52.878;5.998;2023-01-10T11:59:11;27.08;;;7.00;;
54384;SDS011;40284;52.878;5.998;2023-01-10T12:01:40;28.27;;;6.38;;
54384;SDS011;40284;52.878;5.998;2023-01-10T12:04:12;31.63;;;7.63;;
54384;SDS011;40284;52.878;5.998;2023-01-10T12:06:41;32.30;;;6.90;;
54384;SDS011;40284;52.878;5.998;2023-01-10T12:12:00;29.75;;;8.40;;
54384;SDS011;40284;52.878;5.998;2023-01-10T12:14:26;28.85;;;7.53;;
54384;SDS011;40284;52.878;5.998;2023-01-10T12:16:59;33.25;;;7.38;;
54384;SDS011;40284;52.878;5.998;2023-01-10T12:19:25;29.70;;;7.63;;
54384;SDS011;40284;52.878;5.998;2023-01-10T12:21:51;24.55;;;6.97;;
54384;SDS011;40284;52.878;5.998;2023-01-10T12:24:23;47.88;;;7.72;;
54384;SDS011;40284;52.878;5.998;2023-01-10T12:26:50;42.65;;;8.95;;
54384;SDS011;40284;52.878;5.998;2023-01-10T12:29:24;27.13;;;7.47;;
54384;SDS011;40284;52.878;5.998;2023-01-10T12:31:52;38.50;;;8.23;;
54384;SDS011;40284;52.878;5.998;2023-01-10T12:34:20;42.28;;;8.43;;
54384;SDS011;40284;52.878;5.998;2023-01-10T12:36:59;30.55;;;7.45;;
54384;SDS011;40284;52.878;5.998;2023-01-10T12:39:35;30.55;;;6.50;;
54384;SDS011;40284;52.878;5.998;2023-01-10T12:44:48;25.30;;;6.63;;
54384;SDS011;40284;52.878;5.998;2023-01-10T12:50:13;30.10;;;7.55;;
54384;SDS011;40284;52.878;5.998;2023-01-10T12:52:53;29.58;;;6.95;;
54384;SDS011;40284;52.878;5.998;2023-01-10T12:55:23;27.38;;;6.53;;
54384;SDS011;40284;52.878;5.998;2023-01-10T12:57:52;23.27;;;6.00;;
54384;SDS011;40284;52.878;5.998;2023-01-10T13:00:21;31.33;;;6.22;;
54384;SDS011;40284;52.878;5.998;2023-01-10T13:02:53;31.13;;;6.22;;
54384;SDS011;40284;52.878;5.998;2023-01-10T13:05:21;32.13;;;6.32;;
54384;SDS011;40284;52.878;5.998;2023-01-10T13:07:47;33.05;;;6.97;;
54384;SDS011;40284;52.878;5.998;2023-01-10T13:10:16;32.75;;;7.50;;
54384;SDS011;40284;52.878;5.998;2023-01-10T13:12:43;29.95;;;6.28;;
54384;SDS011;40284;52.878;5.998;2023-01-10T13:15:17;28.65;;;6.38;;
54384;SDS011;40284;52.878;5.998;2023-01-10T13:17:50;35.80;;;7.70;;
54384;SDS011;40284;52.878;5.998;2023-01-10T13:22:44;26.23;;;5.85;;
54384;SDS011;40284;52.878;5.998;2023-01-10T13:27:44;26.98;;;6.13;;
54384;SDS011;40284;52.878;5.998;2023-01-10T13:30:26;24.50;;;5.40;;
54384;SDS011;40284;52.878;5.998;2023-01-10T13:32:56;25.95;;;6.50;;
54384;SDS011;40284;52.878;5.998;2023-01-10T13:35:23;29.30;;;6.03;;
54384;SDS011;40284;52.878;5.998;2023-01-10T13:37:53;23.85;;;6.63;;
54384;SDS011;40284;52.878;5.998;2023-01-10T13:40:21;26.38;;;5.57;;
54384;SDS011;40284;52.878;5.998;2023-01-10T13:45:45;37.30;;;9.93;;
54384;SDS011;40284;52.878;5.998;2023-01-10T13:48:24;22.65;;;4.95;;
54384;SDS011;40284;52.878;5.998;2023-01-10T13:50:55;24.17;;;4.93;;
54384;SDS011;40284;52.878;5.998;2023-01-10T13:55:57;17.92;;;4.47;;
54384;SDS011;40284;52.878;5.998;2023-01-10T14:04:18;27.13;;;5.77;;
54384;SDS011;40284;52.878;5.998;2023-01-10T14:06:49;24.98;;;5.15;;
54384;SDS011;40284;52.878;5.998;2023-01-10T14:14:41;27.02;;;4.72;;
54384;SDS011;40284;52.878;5.998;2023-01-10T14:17:11;30.85;;;5.78;;
54384;SDS011;40284;52.878;5.998;2023-01-10T14:19:38;29.75;;;6.78;;
54384;SDS011;40284;52.878;5.998;2023-01-10T14:22:05;23.67;;;4.20;;
54384;SDS011;40284;52.878;5.998;2023-01-10T14:24:36;25.40;;;5.78;;
54384;SDS011;40284;52.878;5.998;2023-01-10T14:27:04;15.13;;;4.43;;
54384;SDS011;40284;52.878;5.998;2023-01-10T14:29:32;23.52;;;4.60;;
54384;SDS011;40284;52.878;5.998;2023-01-10T14:31:59;26.17;;;4.78;;
54384;SDS011;40284;52.878;5.998;2023-01-10T14:34:28;25.30;;;4.82;;
54384;SDS011;40284;52.878;5.998;2023-01-10T14:37:08;29.85;;;4.65;;
54384;SDS011;40284;52.878;5.998;2023-01-10T14:39:39;22.63;;;5.07;;
54384;SDS011;40284;52.878;5.998;2023-01-10T14:42:07;20.92;;;4.93;;
54384;SDS011;40284;52.878;5.998;2023-01-10T14:44:40;19.30;;;3.70;;
54384;SDS011;40284;52.878;5.998;2023-01-10T14:47:26;23.10;;;4.65;;
54384;SDS011;40284;52.878;5.998;2023-01-10T14:52:40;28.75;;;5.85;;
54384;SDS011;40284;52.878;5.998;2023-01-10T14:57:32;19.80;;;4.25;;
54384;SDS011;40284;52.878;5.998;2023-01-10T15:00:06;25.83;;;4.30;;
54384;SDS011;40284;52.878;5.998;2023-01-10T15:02:32;17.45;;;4.78;;
54384;SDS011;40284;52.878;5.998;2023-01-10T15:04:59;24.42;;;5.30;;
54384;SDS011;40284;52.878;5.998;2023-01-10T15:07:26;33.83;;;6.45;;
54384;SDS011;40284;52.878;5.998;2023-01-10T15:09:53;23.75;;;5.78;;
54384;SDS011;40284;52.878;5.998;2023-01-10T15:12:23;22.48;;;5.75;;
54384;SDS011;40284;52.878;5.998;2023-01-10T15:15:05;30.17;;;5.95;;
54384;SDS011;40284;52.878;5.998;2023-01-10T15:17:32;23.45;;;7.05;;
54384;SDS011;40284;52.878;5.998;2023-01-10T15:19:59;28.85;;;8.05;;
54384;SDS011;40284;52.878;5.998;2023-01-10T15:22:30;35.75;;;7.05;;
54384;SDS011;40284;52.878;5.998;2023-01-10T15:24:57;37.15;;;7.05;;
54384;SDS011;40284;52.878;5.998;2023-01-10T15:27:23;27.38;;;6.07;;
54384;SDS011;40284;52.878;5.998;2023-01-10T15:29:50;24.75;;;6.15;;
54384;SDS011;40284;52.878;5.998;2023-01-10T15:32:26;34.15;;;6.55;;
54384;SDS011;40284;52.878;5.998;2023-01-10T15:34:54;25.85;;;5.68;;
54384;SDS011;40284;52.878;5.998;2023-01-10T15:37:21;30.50;;;6.70;;
54384;SDS011;40284;52.878;5.998;2023-01-10T15:39:50;22.70;;;5.30;;
54384;SDS011;40284;52.878;5.998;2023-01-10T15:42:17;29.02;;;5.85;;
54384;SDS011;40284;52.878;5.998;2023-01-10T15:44:45;25.88;;;6.18;;
54384;SDS011;40284;52.878;5.998;2023-01-10T15:52:49;24.50;;;5.15;;
54384;SDS011;40284;52.878;5.998;2023-01-10T15:55:35;30.15;;;7.07;;
54384;SDS011;40284;52.878;5.998;2023-01-10T15:58:02;30.98;;;4.75;;
54384;SDS011;40284;52.878;5.998;2023-01-10T16:00:28;22.15;;;5.18;;
54384;SDS011;40284;52.878;5.998;2023-01-10T16:02:55;20.90;;;4.30;;
54384;SDS011;40284;52.878;5.998;2023-01-10T16:05:21;31.40;;;6.30;;
54384;SDS011;40284;52.878;5.998;2023-01-10T16:07:47;21.45;;;4.72;;
54384;SDS011;40284;52.878;5.998;2023-01-10T16:12:40;23.70;;;5.32;;
54384;SDS011;40284;52.878;5.998;2023-01-10T16:15:29;26.77;;;4.95;;
54384;SDS011;40284;52.878;5.998;2023-01-10T16:17:56;21.33;;;4.75;;
54384;SDS011;40284;52.878;5.998;2023-01-10T16:20:24;23.92;;;4.82;;
54384;SDS011;40284;52.878;5.998;2023-01-10T16:22:51;29.95;;;4.47;;
54384;SDS011;40284;52.878;5.998;2023-01-10T16:25:18;24.17;;;4.93;;
54384;SDS011;40284;52.878;5.998;2023-01-10T16:27:45;22.60;;;5.13;;
54384;SDS011;40284;52.878;5.998;2023-01-10T16:30:22;22.38;;;4.82;;
54384;SDS011;40284;52.878;5.998;2023-01-10T16:32:48;22.35;;;4.60;;
54384;SDS011;40284;52.878;5.998;2023-01-10T16:35:14;27.52;;;6.68;;